sensor_id;sensor_type;location;lat;lon;timestamp;P1;durP1;ratioP1;P2;durP2;ratioP2
43801;SDS011;29429;51.074;13.764;2023-02-03T00:02:25;6.47;;;3.58;;
43801;SDS011;29429;51.074;13.764;2023-02-03T00:04:52;8.30;;;3.50;;
43801;SDS011;29429;51.074;13.764;2023-02-03T00:07:19;13.50;;;3.88;;
43801;SDS011;29429;51.074;13.764;2023-02-03T00:09:46;9.70;;;3.53;;
43801;SDS011;29429;51.074;13.764;2023-02-03T00:12:13;11.55;;;4.00;;
43801;SDS011;29429;51.074;13.764;2023-02-03T00:14:40;8.18;;;3.70;;
43801;SDS011;29429;51.074;13.764;2023-02-03T00:17:07;7.38;;;3.88;;
43801;SDS011;29429;51.074;13.764;2023-02-03T00:19:35;7.20;;;3.65;;
43801;SDS011;29429;51.074;13.764;2023-02-03T00:22:02;7.13;;;3.67;;
43801;SDS011;29429;51.074;13.764;2023-02-03T00:24:29;10.68;;;3.75;;
43801;SDS011;29429;51.074;13.764;2023-02-03T00:26:56;8.32;;;3.47;;
43801;SDS011;29429;51.074;13.764;2023-02-03T00:29:23;8.05;;;3.20;;
43801;SDS011;29429;51.074;13.764;2023-02-03T00:31:51;9.88;;;3.92;;
43801;SDS011;29429;51.074;13.764;2023-02-03T00:34:19;8.00;;;3.50;;
43801;SDS011;29429;51.074;13.764;2023-02-03T00:36:47;12.18;;;4.05;;
43801;SDS011;29429;51.074;13.764;2023-02-03T00:39:14;10.50;;;3.60;;
43801;SDS011;29429;51.074;13.764;2023-02-03T00:41:41;9.95;;;3.70;;
43801;SDS011;29429;51.074;13.764;2023-02-03T00:44:08;8.30;;;4.00;;
43801;SDS011;29429;51.074;13.764;2023-02-03T00:46:36;10.57;;;3.70;;
43801;SDS011;29429;51.074;13.764;2023-02-03T00:49:03;10.75;;;3.60;;
43801;SDS011;29429;51.074;13.764;2023-02-03T00:51:31;8.32;;;3.67;;
43801;SDS011;29429;51.074;13.764;2023-02-03T00:53:59;8.73;;;4.13;;
43801;SDS011;29429;51.074;13.764;2023-02-03T00:56:28;10.00;;;3.83;;
43801;SDS011;29429;51.074;13.764;2023-02-03T00:58:54;11.70;;;3.85;;
43801;SDS011;29429;51.074;13.764;2023-02-03T01:01:37;9.95;;;4.72;;
43801;SDS011;29429;51.074;13.764;2023-02-03T01:04:24;13.95;;;5.40;;
43801;SDS011;29429;51.074;13.764;2023-02-03T01:06:52;15.43;;;5.13;;
43801;SDS011;29429;51.074;13.764;2023-02-03T01:09:23;14.48;;;5.40;;
43801;SDS011;29429;51.074;13.764;2023-02-03T01:11:53;13.50;;;5.80;;
43801;SDS011;29429;51.074;13.764;2023-02-03T01:14:29;14.07;;;4.60;;
43801;SDS011;29429;51.074;13.764;2023-02-03T01:16:57;10.43;;;4.88;;
43801;SDS011;29429;51.074;13.764;2023-02-03T01:19:24;11.77;;;4.57;;
43801;SDS011;29429;51.074;13.764;2023-02-03T01:21:51;19.63;;;5.32;;
43801;SDS011;29429;51.074;13.764;2023-02-03T01:24:18;10.18;;;4.40;;
43801;SDS011;29429;51.074;13.764;2023-02-03T01:26:45;12.07;;;3.72;;
43801;SDS011;29429;51.074;13.764;2023-02-03T01:29:12;10.77;;;4.10;;
43801;SDS011;29429;51.074;13.764;2023-02-03T01:31:40;9.45;;;4.63;;
43801;SDS011;29429;51.074;13.764;2023-02-03T01:34:11;12.10;;;3.75;;
43801;SDS011;29429;51.074;13.764;2023-02-03T01:36:42;11.40;;;3.65;;
43801;SDS011;29429;51.074;13.764;2023-02-03T01:39:09;9.13;;;3.10;;
43801;SDS011;29429;51.074;13.764;2023-02-03T01:41:37;7.53;;;3.05;;
43801;SDS011;29429;51.074;13.764;2023-02-03T01:52:34;9.00;;;2.90;;
43801;SDS011;29429;51.074;13.764;2023-02-03T01:55:03;6.82;;;2.65;;
43801;SDS011;29429;51.074;13.764;2023-02-03T01:57:36;8.32;;;2.30;;
43801;SDS011;29429;51.074;13.764;2023-02-03T02:00:10;5.35;;;2.30;;
43801;SDS011;29429;51.074;13.764;2023-02-03T02:02:38;9.25;;;2.45;;
43801;SDS011;29429;51.074;13.764;2023-02-03T02:05:13;5.35;;;2.00;;
43801;SDS011;29429;51.074;13.764;2023-02-03T02:08:12;3.80;;;1.77;;
43801;SDS011;29429;51.074;13.764;2023-02-03T02:10:43;6.57;;;2.00;;
43801;SDS011;29429;51.074;13.764;2023-02-03T02:13:11;4.50;;;1.92;;
43801;SDS011;29429;51.074;13.764;2023-02-03T02:27:36;8.15;;;2.38;;
43801;SDS011;29429;51.074;13.764;2023-02-03T02:36:52;12.85;;;3.08;;
43801;SDS011;29429;51.074;13.764;2023-02-03T02:45:31;6.35;;;3.00;;
43801;SDS011;29429;51.074;13.764;2023-02-03T02:48:20;8.80;;;3.22;;
43801;SDS011;29429;51.074;13.764;2023-02-03T02:50:56;4.45;;;2.40;;
43801;SDS011;29429;51.074;13.764;2023-02-03T02:53:28;9.65;;;4.13;;
43801;SDS011;29429;51.074;13.764;2023-02-03T02:56:06;10.57;;;2.92;;
43801;SDS011;29429;51.074;13.764;2023-02-03T02:58:37;12.65;;;3.67;;
43801;SDS011;29429;51.074;13.764;2023-02-03T03:01:08;6.93;;;2.88;;
43801;SDS011;29429;51.074;13.764;2023-02-03T03:03:36;7.25;;;3.33;;
43801;SDS011;29429;51.074;13.764;2023-02-03T03:06:07;11.63;;;3.20;;
43801;SDS011;29429;51.074;13.764;2023-02-03T03:08:45;9.52;;;3.00;;
43801;SDS011;29429;51.074;13.764;2023-02-03T03:11:23;9.20;;;3.08;;
43801;SDS011;29429;51.074;13.764;2023-02-03T03:13:56;9.23;;;3.30;;
43801;SDS011;29429;51.074;13.764;2023-02-03T03:16:28;7.85;;;2.83;;
43801;SDS011;29429;51.074;13.764;2023-02-03T03:19:01;6.68;;;3.10;;
43801;SDS011;29429;51.074;13.764;2023-02-03T03:21:37;7.75;;;2.40;;
43801;SDS011;29429;51.074;13.764;2023-02-03T03:24:20;6.47;;;2.50;;
43801;SDS011;29429;51.074;13.764;2023-02-03T03:27:11;5.80;;;2.75;;
43801;SDS011;29429;51.074;13.764;2023-02-03T03:29:52;3.80;;;2.50;;
43801;SDS011;29429;51.074;13.764;2023-02-03T03:32:26;5.47;;;2.60;;
43801;SDS011;29429;51.074;13.764;2023-02-03T03:34:58;7.22;;;2.42;;
43801;SDS011;29429;51.074;13.764;2023-02-03T03:37:37;6.63;;;2.58;;
43801;SDS011;29429;51.074;13.764;2023-02-03T03:40:15;4.78;;;2.60;;
43801;SDS011;29429;51.074;13.764;2023-02-03T03:43:16;7.47;;;2.55;;
43801;SDS011;29429;51.074;13.764;2023-02-03T03:45:54;6.90;;;2.83;;
43801;SDS011;29429;51.074;13.764;2023-02-03T03:48:39;10.60;;;3.00;;
43801;SDS011;29429;51.074;13.764;2023-02-03T03:53:58;6.50;;;2.58;;
43801;SDS011;29429;51.074;13.764;2023-02-03T03:56:38;3.70;;;2.17;;
43801;SDS011;29429;51.074;13.764;2023-02-03T03:59:11;6.13;;;3.50;;
43801;SDS011;29429;51.074;13.764;2023-02-03T04:01:44;5.82;;;3.22;;
43801;SDS011;29429;51.074;13.764;2023-02-03T04:04:14;5.72;;;3.67;;
43801;SDS011;29429;51.074;13.764;2023-02-03T04:06:43;7.40;;;3.53;;
43801;SDS011;29429;51.074;13.764;2023-02-03T04:09:09;7.78;;;4.18;;
43801;SDS011;29429;51.074;13.764;2023-02-03T04:11:36;6.18;;;3.50;;
43801;SDS011;29429;51.074;13.764;2023-02-03T04:14:22;6.85;;;4.00;;
43801;SDS011;29429;51.074;13.764;2023-02-03T04:16:49;6.97;;;4.63;;
43801;SDS011;29429;51.074;13.764;2023-02-03T04:19:16;8.15;;;4.85;;
43801;SDS011;29429;51.074;13.764;2023-02-03T04:21:43;8.57;;;4.80;;
43801;SDS011;29429;51.074;13.764;2023-02-03T04:24:10;8.38;;;4.80;;
43801;SDS011;29429;51.074;13.764;2023-02-03T04:26:37;10.27;;;5.70;;
43801;SDS011;29429;51.074;13.764;2023-02-03T04:29:04;9.93;;;5.88;;
43801;SDS011;29429;51.074;13.764;2023-02-03T04:31:32;8.60;;;6.13;;
43801;SDS011;29429;51.074;13.764;2023-02-03T04:33:59;11.50;;;6.35;;
43801;SDS011;29429;51.074;13.764;2023-02-03T04:36:26;8.52;;;5.78;;
43801;SDS011;29429;51.074;13.764;2023-02-03T04:38:53;11.32;;;6.00;;
43801;SDS011;29429;51.074;13.764;2023-02-03T04:41:20;9.15;;;6.28;;
43801;SDS011;29429;51.074;13.764;2023-02-03T04:43:47;8.75;;;5.88;;
43801;SDS011;29429;51.074;13.764;2023-02-03T04:46:14;9.98;;;5.95;;
43801;SDS011;29429;51.074;13.764;2023-02-03T04:48:41;10.18;;;6.10;;
43801;SDS011;29429;51.074;13.764;2023-02-03T04:51:08;9.82;;;6.32;;
43801;SDS011;29429;51.074;13.764;2023-02-03T04:53:35;9.23;;;5.90;;
43801;SDS011;29429;51.074;13.764;2023-02-03T04:56:02;10.35;;;6.88;;
43801;SDS011;29429;51.074;13.764;2023-02-03T04:58:29;12.07;;;6.90;;
43801;SDS011;29429;51.074;13.764;2023-02-03T05:04:15;10.32;;;6.47;;
43801;SDS011;29429;51.074;13.764;2023-02-03T05:06:41;13.85;;;7.10;;
43801;SDS011;29429;51.074;13.764;2023-02-03T05:09:09;11.68;;;6.60;;
43801;SDS011;29429;51.074;13.764;2023-02-03T05:15:01;10.02;;;6.57;;
43801;SDS011;29429;51.074;13.764;2023-02-03T05:20:21;10.93;;;6.35;;
43801;SDS011;29429;51.074;13.764;2023-02-03T05:22:48;9.77;;;6.22;;
43801;SDS011;29429;51.074;13.764;2023-02-03T05:25:15;8.70;;;6.68;;
43801;SDS011;29429;51.074;13.764;2023-02-03T05:27:42;9.40;;;6.68;;
43801;SDS011;29429;51.074;13.764;2023-02-03T05:30:09;11.90;;;8.05;;
43801;SDS011;29429;51.074;13.764;2023-02-03T05:33:55;11.50;;;6.97;;
43801;SDS011;29429;51.074;13.764;2023-02-03T05:36:22;11.77;;;7.40;;
43801;SDS011;29429;51.074;13.764;2023-02-03T05:38:49;12.68;;;6.80;;
43801;SDS011;29429;51.074;13.764;2023-02-03T05:41:16;10.05;;;7.32;;
43801;SDS011;29429;51.074;13.764;2023-02-03T05:44:29;9.90;;;6.93;;
43801;SDS011;29429;51.074;13.764;2023-02-03T05:47:38;11.98;;;7.22;;
43801;SDS011;29429;51.074;13.764;2023-02-03T05:50:14;10.85;;;6.93;;
43801;SDS011;29429;51.074;13.764;2023-02-03T05:52:41;10.77;;;7.13;;
43801;SDS011;29429;51.074;13.764;2023-02-03T05:58:31;9.32;;;6.30;;
43801;SDS011;29429;51.074;13.764;2023-02-03T06:01:00;9.75;;;6.35;;
43801;SDS011;29429;51.074;13.764;2023-02-03T06:03:27;11.02;;;6.68;;
43801;SDS011;29429;51.074;13.764;2023-02-03T06:05:54;9.68;;;6.78;;
43801;SDS011;29429;51.074;13.764;2023-02-03T06:08:21;9.02;;;6.82;;
43801;SDS011;29429;51.074;13.764;2023-02-03T06:10:48;10.85;;;6.90;;
43801;SDS011;29429;51.074;13.764;2023-02-03T06:13:15;10.68;;;6.88;;
43801;SDS011;29429;51.074;13.764;2023-02-03T06:15:45;10.05;;;7.05;;
43801;SDS011;29429;51.074;13.764;2023-02-03T06:19:02;8.40;;;6.95;;
43801;SDS011;29429;51.074;13.764;2023-02-03T06:21:29;10.13;;;6.93;;
43801;SDS011;29429;51.074;13.764;2023-02-03T06:23:58;10.77;;;6.95;;
43801;SDS011;29429;51.074;13.764;2023-02-03T06:26:25;13.73;;;7.25;;
43801;SDS011;29429;51.074;13.764;2023-02-03T06:28:52;9.25;;;6.65;;
43801;SDS011;29429;51.074;13.764;2023-02-03T06:31:20;11.32;;;7.25;;
43801;SDS011;29429;51.074;13.764;2023-02-03T06:33:47;11.57;;;7.10;;
43801;SDS011;29429;51.074;13.764;2023-02-03T06:36:16;9.00;;;6.60;;
43801;SDS011;29429;51.074;13.764;2023-02-03T06:38:57;9.10;;;6.72;;
43801;SDS011;29429;51.074;13.764;2023-02-03T06:41:45;9.38;;;6.90;;
43801;SDS011;29429;51.074;13.764;2023-02-03T06:44:13;8.20;;;6.18;;
43801;SDS011;29429;51.074;13.764;2023-02-03T06:46:50;9.50;;;6.60;;
43801;SDS011;29429;51.074;13.764;2023-02-03T06:49:27;9.63;;;5.85;;
43801;SDS011;29429;51.074;13.764;2023-02-03T06:52:00;8.80;;;5.30;;
43801;SDS011;29429;51.074;13.764;2023-02-03T06:54:28;8.95;;;5.65;;
43801;SDS011;29429;51.074;13.764;2023-02-03T06:57:07;9.23;;;5.93;;
43801;SDS011;29429;51.074;13.764;2023-02-03T07:00:00;9.73;;;6.20;;
43801;SDS011;29429;51.074;13.764;2023-02-03T07:02:54;8.50;;;5.93;;
43801;SDS011;29429;51.074;13.764;2023-02-03T07:05:23;7.10;;;5.57;;
43801;SDS011;29429;51.074;13.764;2023-02-03T07:07:53;10.50;;;6.47;;
43801;SDS011;29429;51.074;13.764;2023-02-03T07:10:20;10.07;;;6.13;;
43801;SDS011;29429;51.074;13.764;2023-02-03T07:12:47;9.90;;;6.57;;
43801;SDS011;29429;51.074;13.764;2023-02-03T07:15:18;8.45;;;5.93;;
43801;SDS011;29429;51.074;13.764;2023-02-03T07:18:06;7.63;;;5.95;;
43801;SDS011;29429;51.074;13.764;2023-02-03T07:20:33;6.10;;;5.35;;
43801;SDS011;29429;51.074;13.764;2023-02-03T07:23:00;8.40;;;5.28;;
43801;SDS011;29429;51.074;13.764;2023-02-03T07:25:27;9.93;;;5.13;;
43801;SDS011;29429;51.074;13.764;2023-02-03T07:27:54;7.60;;;5.05;;
43801;SDS011;29429;51.074;13.764;2023-02-03T07:30:57;7.22;;;5.05;;
43801;SDS011;29429;51.074;13.764;2023-02-03T07:33:24;8.85;;;4.63;;
43801;SDS011;29429;51.074;13.764;2023-02-03T07:35:53;6.00;;;4.30;;
43801;SDS011;29429;51.074;13.764;2023-02-03T07:38:25;7.57;;;4.47;;
43801;SDS011;29429;51.074;13.764;2023-02-03T07:41:13;8.90;;;4.53;;
43801;SDS011;29429;51.074;13.764;2023-02-03T07:43:43;5.75;;;4.18;;
43801;SDS011;29429;51.074;13.764;2023-02-03T07:46:10;5.10;;;3.75;;
43801;SDS011;29429;51.074;13.764;2023-02-03T07:48:46;8.73;;;3.92;;
43801;SDS011;29429;51.074;13.764;2023-02-03T07:51:23;7.55;;;4.25;;
43801;SDS011;29429;51.074;13.764;2023-02-03T07:53:50;7.75;;;4.13;;
43801;SDS011;29429;51.074;13.764;2023-02-03T07:56:17;5.38;;;3.78;;
43801;SDS011;29429;51.074;13.764;2023-02-03T07:58:44;6.20;;;4.05;;
43801;SDS011;29429;51.074;13.764;2023-02-03T08:01:14;9.10;;;5.45;;
43801;SDS011;29429;51.074;13.764;2023-02-03T08:03:42;8.68;;;4.97;;
43801;SDS011;29429;51.074;13.764;2023-02-03T08:06:11;5.93;;;4.90;;
43801;SDS011;29429;51.074;13.764;2023-02-03T08:08:38;7.00;;;4.32;;
43801;SDS011;29429;51.074;13.764;2023-02-03T08:11:07;6.78;;;4.10;;
43801;SDS011;29429;51.074;13.764;2023-02-03T08:13:37;6.75;;;3.85;;
43801;SDS011;29429;51.074;13.764;2023-02-03T08:16:36;6.03;;;3.85;;
43801;SDS011;29429;51.074;13.764;2023-02-03T08:19:17;9.30;;;4.10;;
43801;SDS011;29429;51.074;13.764;2023-02-03T08:22:15;6.50;;;4.20;;
43801;SDS011;29429;51.074;13.764;2023-02-03T08:24:56;7.03;;;3.88;;
43801;SDS011;29429;51.074;13.764;2023-02-03T08:28:56;7.00;;;3.90;;
43801;SDS011;29429;51.074;13.764;2023-02-03T08:34:34;5.68;;;3.28;;
43801;SDS011;29429;51.074;13.764;2023-02-03T08:37:39;8.80;;;3.08;;
43801;SDS011;29429;51.074;13.764;2023-02-03T08:40:06;5.53;;;3.50;;
43801;SDS011;29429;51.074;13.764;2023-02-03T08:42:35;4.88;;;3.13;;
43801;SDS011;29429;51.074;13.764;2023-02-03T08:45:03;4.80;;;3.25;;
43801;SDS011;29429;51.074;13.764;2023-02-03T08:47:31;4.47;;;3.22;;
43801;SDS011;29429;51.074;13.764;2023-02-03T08:50:06;5.68;;;3.78;;
43801;SDS011;29429;51.074;13.764;2023-02-03T08:52:34;5.65;;;3.10;;
43801;SDS011;29429;51.074;13.764;2023-02-03T08:55:04;4.72;;;3.15;;
43801;SDS011;29429;51.074;13.764;2023-02-03T08:57:33;6.82;;;3.17;;
43801;SDS011;29429;51.074;13.764;2023-02-03T09:00:05;4.95;;;3.03;;
43801;SDS011;29429;51.074;13.764;2023-02-03T09:02:37;5.28;;;3.33;;
43801;SDS011;29429;51.074;13.764;2023-02-03T09:05:04;6.00;;;3.60;;
43801;SDS011;29429;51.074;13.764;2023-02-03T09:07:32;5.30;;;3.40;;
43801;SDS011;29429;51.074;13.764;2023-02-03T09:10:00;5.22;;;3.25;;
43801;SDS011;29429;51.074;13.764;2023-02-03T09:12:27;5.63;;;3.30;;
43801;SDS011;29429;51.074;13.764;2023-02-03T09:17:47;4.55;;;3.17;;
43801;SDS011;29429;51.074;13.764;2023-02-03T09:20:17;5.25;;;3.20;;
43801;SDS011;29429;51.074;13.764;2023-02-03T09:22:47;4.57;;;2.97;;
43801;SDS011;29429;51.074;13.764;2023-02-03T09:25:32;6.35;;;3.78;;
43801;SDS011;29429;51.074;13.764;2023-02-03T09:29:59;6.63;;;3.50;;
43801;SDS011;29429;51.074;13.764;2023-02-03T09:32:27;7.28;;;3.58;;
43801;SDS011;29429;51.074;13.764;2023-02-03T09:35:01;5.03;;;3.47;;
43801;SDS011;29429;51.074;13.764;2023-02-03T09:37:29;6.35;;;3.92;;
43801;SDS011;29429;51.074;13.764;2023-02-03T09:40:04;11.15;;;4.10;;
43801;SDS011;29429;51.074;13.764;2023-02-03T09:42:35;8.82;;;4.07;;
43801;SDS011;29429;51.074;13.764;2023-02-03T09:45:31;6.97;;;4.10;;
43801;SDS011;29429;51.074;13.764;2023-02-03T09:48:03;5.60;;;3.63;;
43801;SDS011;29429;51.074;13.764;2023-02-03T09:50:46;7.07;;;3.92;;
43801;SDS011;29429;51.074;13.764;2023-02-03T09:53:22;6.03;;;4.20;;
43801;SDS011;29429;51.074;13.764;2023-02-03T09:56:15;8.30;;;4.32;;
43801;SDS011;29429;51.074;13.764;2023-02-03T09:58:52;5.15;;;3.92;;
43801;SDS011;29429;51.074;13.764;2023-02-03T10:01:27;9.90;;;5.07;;
43801;SDS011;29429;51.074;13.764;2023-02-03T10:07:12;7.65;;;4.55;;
43801;SDS011;29429;51.074;13.764;2023-02-03T10:09:59;5.47;;;4.07;;
43801;SDS011;29429;51.074;13.764;2023-02-03T10:18:34;9.32;;;3.88;;
43801;SDS011;29429;51.074;13.764;2023-02-03T10:21:18;9.27;;;4.38;;
43801;SDS011;29429;51.074;13.764;2023-02-03T10:24:24;7.47;;;4.30;;
43801;SDS011;29429;51.074;13.764;2023-02-03T10:27:26;6.53;;;4.13;;
43801;SDS011;29429;51.074;13.764;2023-02-03T10:33:39;6.65;;;4.40;;
43801;SDS011;29429;51.074;13.764;2023-02-03T10:36:29;10.60;;;4.80;;
43801;SDS011;29429;51.074;13.764;2023-02-03T10:39:46;5.68;;;3.80;;
43801;SDS011;29429;51.074;13.764;2023-02-03T10:42:26;5.32;;;3.63;;
43801;SDS011;29429;51.074;13.764;2023-02-03T10:45:18;7.30;;;3.47;;
43801;SDS011;29429;51.074;13.764;2023-02-03T10:48:01;6.75;;;3.80;;
43801;SDS011;29429;51.074;13.764;2023-02-03T10:51:33;7.25;;;3.92;;
43801;SDS011;29429;51.074;13.764;2023-02-03T10:54:33;6.15;;;4.22;;
43801;SDS011;29429;51.074;13.764;2023-02-03T10:57:05;5.95;;;3.97;;
43801;SDS011;29429;51.074;13.764;2023-02-03T11:02:55;7.38;;;3.70;;
43801;SDS011;29429;51.074;13.764;2023-02-03T11:05:29;10.60;;;4.30;;
43801;SDS011;29429;51.074;13.764;2023-02-03T11:08:50;10.45;;;3.95;;
43801;SDS011;29429;51.074;13.764;2023-02-03T11:11:22;8.43;;;3.50;;
43801;SDS011;29429;51.074;13.764;2023-02-03T11:15:33;6.25;;;2.55;;
43801;SDS011;29429;51.074;13.764;2023-02-03T11:18:00;4.97;;;2.67;;
43801;SDS011;29429;51.074;13.764;2023-02-03T11:20:27;4.35;;;2.95;;
43801;SDS011;29429;51.074;13.764;2023-02-03T11:22:55;7.53;;;3.10;;
43801;SDS011;29429;51.074;13.764;2023-02-03T11:25:31;6.20;;;3.03;;
43801;SDS011;29429;51.074;13.764;2023-02-03T11:28:02;8.25;;;3.95;;
43801;SDS011;29429;51.074;13.764;2023-02-03T11:30:33;7.50;;;3.60;;
43801;SDS011;29429;51.074;13.764;2023-02-03T11:33:00;6.28;;;3.25;;
43801;SDS011;29429;51.074;13.764;2023-02-03T11:38:39;7.20;;;3.22;;
43801;SDS011;29429;51.074;13.764;2023-02-03T11:41:14;7.80;;;3.40;;
43801;SDS011;29429;51.074;13.764;2023-02-03T11:43:44;4.55;;;2.75;;
43801;SDS011;29429;51.074;13.764;2023-02-03T11:46:14;7.85;;;3.50;;
43801;SDS011;29429;51.074;13.764;2023-02-03T12:03:01;6.13;;;2.83;;
43801;SDS011;29429;51.074;13.764;2023-02-03T12:06:22;3.45;;;2.58;;
43801;SDS011;29429;51.074;13.764;2023-02-03T12:11:09;5.28;;;2.28;;
43801;SDS011;29429;51.074;13.764;2023-02-03T12:13:57;2.97;;;2.17;;
43801;SDS011;29429;51.074;13.764;2023-02-03T12:23:23;2.88;;;1.63;;
43801;SDS011;29429;51.074;13.764;2023-02-03T12:26:21;3.78;;;1.75;;
43801;SDS011;29429;51.074;13.764;2023-02-03T12:29:18;1.50;;;1.20;;
43801;SDS011;29429;51.074;13.764;2023-02-03T12:34:37;2.72;;;1.30;;
43801;SDS011;29429;51.074;13.764;2023-02-03T13:24:33;10.10;;;1.92;;
43801;SDS011;29429;51.074;13.764;2023-02-03T13:27:16;8.32;;;2.03;;
43801;SDS011;29429;51.074;13.764;2023-02-03T13:30:31;7.93;;;1.80;;
43801;SDS011;29429;51.074;13.764;2023-02-03T13:42:18;6.82;;;1.60;;
43801;SDS011;29429;51.074;13.764;2023-02-03T13:45:10;8.00;;;1.70;;
43801;SDS011;29429;51.074;13.764;2023-02-03T13:51:45;15.80;;;2.40;;
43801;SDS011;29429;51.074;13.764;2023-02-03T13:56:30;15.70;;;2.72;;
43801;SDS011;29429;51.074;13.764;2023-02-03T14:03:04;12.48;;;1.95;;
43801;SDS011;29429;51.074;13.764;2023-02-03T14:07:25;20.92;;;3.15;;
43801;SDS011;29429;51.074;13.764;2023-02-03T14:10:43;12.57;;;2.20;;
43801;SDS011;29429;51.074;13.764;2023-02-03T14:13:18;12.77;;;2.10;;
43801;SDS011;29429;51.074;13.764;2023-02-03T14:15:48;17.50;;;2.50;;
43801;SDS011;29429;51.074;13.764;2023-02-03T14:18:48;19.58;;;2.65;;
43801;SDS011;29429;51.074;13.764;2023-02-03T14:24:13;11.30;;;2.10;;
43801;SDS011;29429;51.074;13.764;2023-02-03T14:26:43;11.27;;;2.17;;
43801;SDS011;29429;51.074;13.764;2023-02-03T14:29:26;13.02;;;2.17;;
43801;SDS011;29429;51.074;13.764;2023-02-03T14:32:02;16.25;;;3.03;;
43801;SDS011;29429;51.074;13.764;2023-02-03T14:35:18;13.13;;;2.33;;
43801;SDS011;29429;51.074;13.764;2023-02-03T14:38:12;18.67;;;3.30;;
43801;SDS011;29429;51.074;13.764;2023-02-03T14:40:52;24.02;;;3.40;;
43801;SDS011;29429;51.074;13.764;2023-02-03T14:44:02;18.05;;;3.03;;
43801;SDS011;29429;51.074;13.764;2023-02-03T14:50:19;14.95;;;2.60;;
43801;SDS011;29429;51.074;13.764;2023-02-03T14:53:29;17.83;;;2.83;;
43801;SDS011;29429;51.074;13.764;2023-02-03T15:11:20;18.65;;;4.50;;
43801;SDS011;29429;51.074;13.764;2023-02-03T15:13:50;16.17;;;3.78;;
43801;SDS011;29429;51.074;13.764;2023-02-03T15:16:20;16.13;;;3.35;;
43801;SDS011;29429;51.074;13.764;2023-02-03T15:19:01;12.88;;;2.75;;
43801;SDS011;29429;51.074;13.764;2023-02-03T15:21:45;23.88;;;2.80;;
43801;SDS011;29429;51.074;13.764;2023-02-03T15:24:16;22.80;;;4.35;;
43801;SDS011;29429;51.074;13.764;2023-02-03T15:26:52;16.27;;;3.25;;
43801;SDS011;29429;51.074;13.764;2023-02-03T15:29:30;21.98;;;3.92;;
43801;SDS011;29429;51.074;13.764;2023-02-03T15:32:07;18.90;;;3.45;;
43801;SDS011;29429;51.074;13.764;2023-02-03T15:34:47;23.23;;;4.00;;
43801;SDS011;29429;51.074;13.764;2023-02-03T15:37:16;17.42;;;3.05;;
43801;SDS011;29429;51.074;13.764;2023-02-03T15:40:12;14.48;;;3.22;;
43801;SDS011;29429;51.074;13.764;2023-02-03T15:48:30;13.60;;;3.28;;
43801;SDS011;29429;51.074;13.764;2023-02-03T15:51:05;15.65;;;3.20;;
43801;SDS011;29429;51.074;13.764;2023-02-03T15:53:43;20.67;;;3.33;;
43801;SDS011;29429;51.074;13.764;2023-02-03T15:56:37;20.45;;;4.20;;
43801;SDS011;29429;51.074;13.764;2023-02-03T15:59:21;19.95;;;3.30;;
43801;SDS011;29429;51.074;13.764;2023-02-03T16:01:55;19.77;;;3.20;;
43801;SDS011;29429;51.074;13.764;2023-02-03T16:04:28;21.45;;;3.58;;
43801;SDS011;29429;51.074;13.764;2023-02-03T16:06:56;22.77;;;4.00;;
43801;SDS011;29429;51.074;13.764;2023-02-03T16:09:36;23.70;;;3.47;;
43801;SDS011;29429;51.074;13.764;2023-02-03T16:14:41;14.20;;;3.40;;
43801;SDS011;29429;51.074;13.764;2023-02-03T16:17:25;20.23;;;3.05;;
43801;SDS011;29429;51.074;13.764;2023-02-03T16:23:16;21.92;;;3.47;;
43801;SDS011;29429;51.074;13.764;2023-02-03T16:26:04;21.45;;;3.78;;
43801;SDS011;29429;51.074;13.764;2023-02-03T16:28:43;19.30;;;3.70;;
43801;SDS011;29429;51.074;13.764;2023-02-03T16:31:53;23.13;;;3.55;;
43801;SDS011;29429;51.074;13.764;2023-02-03T16:34:42;20.45;;;3.50;;
43801;SDS011;29429;51.074;13.764;2023-02-03T16:37:30;15.60;;;3.30;;
43801;SDS011;29429;51.074;13.764;2023-02-03T16:40:23;21.63;;;3.88;;
43801;SDS011;29429;51.074;13.764;2023-02-03T16:43:12;20.45;;;3.05;;
43801;SDS011;29429;51.074;13.764;2023-02-03T16:46:00;21.50;;;3.55;;
43801;SDS011;29429;51.074;13.764;2023-02-03T16:51:39;22.35;;;3.70;;
43801;SDS011;29429;51.074;13.764;2023-02-03T16:54:11;14.77;;;3.47;;
43801;SDS011;29429;51.074;13.764;2023-02-03T16:56:40;16.90;;;3.10;;
43801;SDS011;29429;51.074;13.764;2023-02-03T16:59:07;17.48;;;3.63;;
43801;SDS011;29429;51.074;13.764;2023-02-03T17:01:35;14.25;;;3.28;;
43801;SDS011;29429;51.074;13.764;2023-02-03T17:04:02;18.85;;;3.28;;
43801;SDS011;29429;51.074;13.764;2023-02-03T17:06:29;23.20;;;3.80;;
43801;SDS011;29429;51.074;13.764;2023-02-03T17:08:59;16.33;;;3.75;;
43801;SDS011;29429;51.074;13.764;2023-02-03T17:11:26;13.75;;;2.58;;
43801;SDS011;29429;51.074;13.764;2023-02-03T17:13:53;18.67;;;2.95;;
43801;SDS011;29429;51.074;13.764;2023-02-03T17:16:21;15.45;;;3.03;;
43801;SDS011;29429;51.074;13.764;2023-02-03T17:18:51;24.25;;;4.05;;
43801;SDS011;29429;51.074;13.764;2023-02-03T17:21:26;20.40;;;3.85;;
43801;SDS011;29429;51.074;13.764;2023-02-03T17:23:56;16.90;;;2.85;;
43801;SDS011;29429;51.074;13.764;2023-02-03T17:26:25;16.63;;;3.10;;
43801;SDS011;29429;51.074;13.764;2023-02-03T17:28:53;19.80;;;4.25;;
43801;SDS011;29429;51.074;13.764;2023-02-03T17:31:20;15.35;;;3.35;;
43801;SDS011;29429;51.074;13.764;2023-02-03T17:33:50;21.10;;;4.47;;
43801;SDS011;29429;51.074;13.764;2023-02-03T17:36:18;20.60;;;4.25;;
43801;SDS011;29429;51.074;13.764;2023-02-03T17:43:27;13.52;;;3.20;;
43801;SDS011;29429;51.074;13.764;2023-02-03T17:51:42;14.50;;;3.88;;
43801;SDS011;29429;51.074;13.764;2023-02-03T17:56:23;17.48;;;3.35;;
43801;SDS011;29429;51.074;13.764;2023-02-03T18:00:22;19.08;;;3.33;;
43801;SDS011;29429;51.074;13.764;2023-02-03T18:02:50;21.45;;;3.25;;
43801;SDS011;29429;51.074;13.764;2023-02-03T18:05:21;18.25;;;3.08;;
43801;SDS011;29429;51.074;13.764;2023-02-03T18:07:48;14.35;;;3.28;;
43801;SDS011;29429;51.074;13.764;2023-02-03T18:10:15;18.55;;;3.05;;
43801;SDS011;29429;51.074;13.764;2023-02-03T18:12:42;16.75;;;3.63;;
43801;SDS011;29429;51.074;13.764;2023-02-03T18:15:09;17.48;;;3.75;;
43801;SDS011;29429;51.074;13.764;2023-02-03T18:17:38;17.05;;;3.10;;
43801;SDS011;29429;51.074;13.764;2023-02-03T18:20:07;17.92;;;2.47;;
43801;SDS011;29429;51.074;13.764;2023-02-03T18:22:35;19.73;;;2.83;;
43801;SDS011;29429;51.074;13.764;2023-02-03T18:25:01;15.40;;;4.03;;
43801;SDS011;29429;51.074;13.764;2023-02-03T18:27:29;19.33;;;3.25;;
43801;SDS011;29429;51.074;13.764;2023-02-03T18:29:58;15.88;;;2.83;;
43801;SDS011;29429;51.074;13.764;2023-02-03T18:32:25;15.45;;;3.33;;
43801;SDS011;29429;51.074;13.764;2023-02-03T18:34:52;19.02;;;3.70;;
43801;SDS011;29429;51.074;13.764;2023-02-03T18:37:19;19.95;;;4.65;;
43801;SDS011;29429;51.074;13.764;2023-02-03T18:39:46;15.32;;;3.00;;
43801;SDS011;29429;51.074;13.764;2023-02-03T18:42:13;15.65;;;3.70;;
43801;SDS011;29429;51.074;13.764;2023-02-03T18:44:40;22.23;;;3.22;;
43801;SDS011;29429;51.074;13.764;2023-02-03T18:47:09;25.00;;;3.42;;
43801;SDS011;29429;51.074;13.764;2023-02-03T18:49:36;17.55;;;3.80;;
43801;SDS011;29429;51.074;13.764;2023-02-03T18:52:04;19.77;;;3.45;;
43801;SDS011;29429;51.074;13.764;2023-02-03T18:54:32;14.98;;;2.78;;
43801;SDS011;29429;51.074;13.764;2023-02-03T18:56:59;17.70;;;3.33;;
43801;SDS011;29429;51.074;13.764;2023-02-03T18:59:28;15.57;;;2.80;;